createdAt,value
2023-01-30T00:00:38.342Z,21.8
2023-01-30T00:06:22.329Z,21.6
2023-01-30T00:12:06.505Z,20.9
2023-01-30T00:17:50.308Z,21
2023-01-30T00:23:34.808Z,21.4
2023-01-30T00:29:18.960Z,19.7
2023-01-30T00:35:03.816Z,21.6
2023-01-30T00:40:47.814Z,20.6
2023-01-30T00:46:33.337Z,19.9
2023-01-30T00:52:17.797Z,20.1
2023-01-30T00:58:01.647Z,21.1
2023-01-30T01:03:45.572Z,20.2
2023-01-30T01:09:29.262Z,20.8
2023-01-30T01:15:14.803Z,20.6
2023-01-30T01:20:58.893Z,19.2
2023-01-30T01:26:43.406Z,20.3
2023-01-30T01:32:27.569Z,19.6
2023-01-30T01:38:11.388Z,20.1
2023-01-30T01:44:09.264Z,17.1
2023-01-30T01:49:53.169Z,18.3
2023-01-30T01:55:38.965Z,18.8
2023-01-30T02:01:23.777Z,17.2
2023-01-30T02:07:07.970Z,18.9
2023-01-30T02:12:53.023Z,17.2
2023-01-30T02:18:38.472Z,18.4
2023-01-30T02:24:33.630Z,15.8
2023-01-30T02:30:29.168Z,15.7
2023-01-30T02:36:18.038Z,15.3
2023-01-30T02:42:07.396Z,15.8
2023-01-30T02:47:56.115Z,16.4
2023-01-30T02:53:40.391Z,15.7
2023-01-30T02:59:29.270Z,16.2
2023-01-30T03:05:32.496Z,15
2023-01-30T03:11:16.950Z,14.9
2023-01-30T03:17:01.834Z,15.3
2023-01-30T03:22:45.779Z,14.6
2023-01-30T03:28:30.831Z,15.4
2023-01-30T03:34:14.831Z,15.4
2023-01-30T03:39:59.520Z,14
2023-01-30T03:45:43.164Z,14.7
2023-01-30T03:51:26.990Z,14.7
2023-01-30T03:57:10.993Z,16.1
2023-01-30T04:02:54.887Z,15.7
2023-01-30T04:08:38.765Z,15.1
2023-01-30T04:14:22.510Z,15.4
2023-01-30T04:20:06.506Z,17
2023-01-30T04:25:52.475Z,15.6
2023-01-30T04:31:36.299Z,14
2023-01-30T04:37:20.137Z,13.8
2023-01-30T04:43:04.850Z,15.1
2023-01-30T04:48:48.987Z,14
2023-01-30T04:54:32.862Z,14.6
2023-01-30T05:00:17.474Z,12
2023-01-30T05:06:01.193Z,12.8
2023-01-30T05:11:45.132Z,11.4
2023-01-30T05:17:29.103Z,11
2023-01-30T05:23:12.885Z,12.8
2023-01-30T05:28:58.740Z,11.4
2023-01-30T05:34:42.430Z,10.5
2023-01-30T05:40:26.166Z,9.3
2023-01-30T05:46:12.474Z,10.8
2023-01-30T05:51:56.279Z,9.9
2023-01-30T05:57:40.087Z,8.2
2023-01-30T06:03:24.412Z,7.6
2023-01-30T06:09:08.030Z,8
2023-01-30T06:14:51.856Z,7.4
2023-01-30T06:20:35.631Z,9.3
2023-01-30T06:26:19.609Z,7.6
2023-01-30T06:32:03.381Z,6.1
2023-01-30T06:37:47.417Z,6.9
2023-01-30T06:43:32.079Z,6.2
2023-01-30T06:49:16.099Z,6.9
2023-01-30T06:55:00.022Z,8.5
2023-01-30T07:00:44.763Z,7.7
2023-01-30T07:06:28.786Z,7.8
2023-01-30T07:12:13.682Z,6.7
2023-01-30T07:17:58.110Z,9.5
2023-01-30T07:23:41.861Z,8.8
2023-01-30T07:29:25.798Z,8.2
2023-01-30T07:35:09.798Z,8.9
2023-01-30T07:40:53.694Z,10.5
2023-01-30T07:46:37.716Z,9.7
2023-01-30T07:52:21.583Z,9.2
2023-01-30T07:58:05.554Z,9.4
2023-01-30T08:03:50.850Z,9.9
2023-01-30T08:09:34.554Z,10.9
2023-01-30T08:15:18.363Z,14.6
2023-01-30T08:21:03.705Z,22.5
2023-01-30T08:26:47.690Z,14.3
2023-01-30T08:32:31.681Z,17.9
2023-01-30T08:38:15.681Z,16
2023-01-30T08:43:59.747Z,14.4
2023-01-30T08:49:43.593Z,11.3
2023-01-30T08:55:27.577Z,12.3
2023-01-30T09:01:12.237Z,12.7
2023-01-30T09:06:55.861Z,12.5
2023-01-30T09:12:39.429Z,9.5
2023-01-30T09:18:24.121Z,9.3
2023-01-30T09:24:08.413Z,11.3
2023-01-30T09:29:52.155Z,12.1
2023-01-30T09:35:36.099Z,11
2023-01-30T09:41:34.420Z,12.3
2023-01-30T09:47:23.026Z,9.2
2023-01-30T09:53:08.697Z,11.1
2023-01-30T09:58:54.334Z,8.9
2023-01-30T10:05:01.171Z,9.8
2023-01-30T10:11:08.098Z,9.5
2023-01-30T10:16:45.964Z,8.5
2023-01-30T10:22:37.811Z,7.1
2023-01-30T10:28:25.131Z,7.6
2023-01-30T10:34:12.459Z,9.7
2023-01-30T10:40:01.583Z,7.7
2023-01-30T10:45:48.556Z,8.9
2023-01-30T10:51:42.447Z,9
2023-01-30T10:57:28.802Z,9.1
2023-01-30T11:03:23.649Z,8.2
2023-01-30T11:09:07.537Z,6.8
2023-01-30T11:15:02.472Z,8.4
2023-01-30T11:20:50.730Z,9.3
2023-01-30T11:26:49.267Z,8
2023-01-30T11:32:33.435Z,7.9
2023-01-30T11:38:23.508Z,7.4
2023-01-30T11:44:07.762Z,8.6
2023-01-30T11:50:07.894Z,8
2023-01-30T11:56:11.661Z,8.7
2023-01-30T12:02:02.679Z,9.6
2023-01-30T12:07:47.250Z,10.2
2023-01-30T12:13:35.495Z,10.8
2023-01-30T12:19:23.046Z,9.5
2023-01-30T12:25:12.228Z,8.2
2023-01-30T12:30:58.574Z,10.5
2023-01-30T12:36:47.200Z,8.3
2023-01-30T12:42:42.826Z,12.7
2023-01-30T12:49:11.479Z,13.4
2023-01-30T12:54:56.931Z,12.3
2023-01-30T13:00:47.736Z,15.8
2023-01-30T13:06:39.771Z,12.2
2023-01-30T13:12:28.955Z,23.9
2023-01-30T13:18:16.790Z,12.4
2023-01-30T13:24:08.042Z,12.3
2023-01-30T13:29:52.337Z,13.1
2023-01-30T13:35:38.962Z,9.5
2023-01-30T13:41:23.557Z,15.7
2023-01-30T13:47:13.284Z,20.6
2023-01-30T13:53:02.308Z,9.6
2023-01-30T13:58:49.946Z,10.1
2023-01-30T14:04:44.612Z,6.7
2023-01-30T14:10:29.678Z,7.3
2023-01-30T14:16:15.105Z,7.9
2023-01-30T14:22:03.048Z,10.5
2023-01-30T14:27:46.910Z,9
2023-01-30T14:33:44.767Z,9.6
2023-01-30T14:39:49.754Z,8.6
2023-01-30T14:45:49.034Z,8.9
2023-01-30T14:51:36.591Z,10.6
2023-01-30T14:57:23.986Z,11.3
2023-01-30T15:03:11.075Z,8.9
2023-01-30T15:08:55.053Z,6.7
2023-01-30T15:14:43.203Z,8.7
2023-01-30T15:20:40.962Z,10.4
2023-01-30T15:26:31.172Z,10.9
2023-01-30T15:32:22.281Z,6.9
2023-01-30T15:38:06.258Z,8
2023-01-30T15:44:01.606Z,8.3
2023-01-30T15:49:57.326Z,9
2023-01-30T15:55:41.156Z,12
2023-01-30T16:01:26.019Z,9.5
2023-01-30T16:07:25.447Z,7.8
2023-01-30T16:13:11.337Z,9.3
2023-01-30T16:18:58.738Z,12.2
2023-01-30T16:24:46.078Z,6.1
2023-01-30T16:30:32.008Z,10.8
2023-01-30T16:36:27.115Z,10.6
2023-01-30T16:42:23.368Z,9.9
2023-01-30T16:48:12.993Z,12.1
2023-01-30T16:53:59.542Z,11.9
2023-01-30T16:59:43.302Z,11.5
2023-01-30T17:05:28.462Z,10.7
2023-01-30T17:11:13.615Z,11.1
2023-01-30T17:17:07.890Z,11.8
2023-01-30T17:22:53.068Z,9.6
2023-01-30T17:28:36.906Z,8.6
2023-01-30T17:34:20.685Z,8.6
2023-01-30T17:40:04.485Z,9.1
2023-01-30T17:45:49.302Z,8.6
2023-01-30T17:51:33.610Z,9.5
2023-01-30T17:57:17.697Z,9.3
2023-01-30T18:03:02.146Z,9
2023-01-30T18:08:46.650Z,11
2023-01-30T18:14:31.627Z,7.7
2023-01-30T18:20:18.227Z,11.5
2023-01-30T18:26:02.307Z,7.8
2023-01-30T18:31:46.911Z,8.6
2023-01-30T18:37:31.898Z,10.5
2023-01-30T18:43:16.756Z,9.6
2023-01-30T18:49:01.067Z,8.4
2023-01-30T18:54:45.232Z,7.8
2023-01-30T19:00:29.726Z,10.7
2023-01-30T19:06:14.993Z,9.7
2023-01-30T19:11:58.930Z,9.4
2023-01-30T19:17:42.781Z,9.8
2023-01-30T19:23:27.913Z,7.6
2023-01-30T19:29:12.098Z,9.6
2023-01-30T19:34:55.989Z,12.9
2023-01-30T19:40:42.199Z,9.7
2023-01-30T19:46:26.176Z,9.3
2023-01-30T19:52:10.428Z,9.6
2023-01-30T19:57:54.519Z,13.8
2023-01-30T20:03:38.628Z,12
2023-01-30T20:09:22.361Z,11.9
2023-01-30T20:15:06.373Z,12.5
2023-01-30T20:20:50.127Z,9.9
2023-01-30T20:26:35.163Z,11.9
2023-01-30T20:32:18.997Z,13.8
2023-01-30T20:38:03.818Z,11.3
2023-01-30T20:43:49.641Z,9.9
2023-01-30T20:49:33.576Z,12.6
2023-01-30T20:55:17.951Z,12
2023-01-30T21:01:07.882Z,11
2023-01-30T21:06:51.719Z,10.5
2023-01-30T21:12:35.758Z,12.9
2023-01-30T21:18:19.433Z,12
2023-01-30T21:24:04.491Z,11
2023-01-30T21:29:48.070Z,11.9
2023-01-30T21:35:32.010Z,9.9
2023-01-30T21:41:17.515Z,12.9
2023-01-30T21:47:01.309Z,14.1
2023-01-30T21:52:45.169Z,13.2
2023-01-30T21:58:34.411Z,11.4
2023-01-30T22:04:18.073Z,12.3
2023-01-30T22:10:02.021Z,12.8
2023-01-30T22:15:45.815Z,12.6
2023-01-30T22:21:30.771Z,12.9
2023-01-30T22:27:14.860Z,13.6
2023-01-30T22:32:59.481Z,13.9
2023-01-30T22:38:44.517Z,13.5
2023-01-30T22:44:28.511Z,13
2023-01-30T22:50:13.118Z,11.9
2023-01-30T22:55:57.125Z,12.6
2023-01-30T23:01:42.725Z,10.8
2023-01-30T23:07:26.271Z,12.5
2023-01-30T23:13:10.050Z,12
2023-01-30T23:18:54.005Z,12.6
2023-01-30T23:24:39.059Z,11.9
2023-01-30T23:30:25.096Z,13.1
2023-01-30T23:36:11.062Z,16.1
2023-01-30T23:41:54.924Z,12.1
2023-01-30T23:47:40.053Z,11.3
2023-01-30T23:53:24.031Z,16.6
2023-01-30T23:59:08.623Z,15.2
